createdAt,value
2018-09-30T00:02:11.770Z,67.73
2018-09-30T00:05:16.219Z,69.37
2018-09-30T00:08:20.660Z,69.58
2018-09-30T00:11:25.115Z,69.20
2018-09-30T00:14:29.634Z,68.71
2018-09-30T00:17:34.084Z,68.77
2018-09-30T00:20:38.534Z,70.02
2018-09-30T00:23:48.187Z,69.89
2018-09-30T00:26:59.005Z,70.17
2018-09-30T00:30:03.660Z,70.03
2018-09-30T00:33:08.414Z,69.20
2018-09-30T00:36:12.898Z,70.09
2018-09-30T00:39:17.302Z,71.08
2018-09-30T00:42:21.759Z,70.06
2018-09-30T00:45:26.203Z,69.14
2018-09-30T00:48:30.622Z,70.51
2018-09-30T00:51:35.137Z,71.04
2018-09-30T00:54:39.603Z,69.91
2018-09-30T00:57:44.038Z,70.62
2018-09-30T01:00:48.498Z,70.49
2018-09-30T01:03:52.961Z,70.68
2018-09-30T01:06:57.437Z,70.61
2018-09-30T01:10:01.929Z,71.20
2018-09-30T01:13:06.699Z,69.53
2018-09-30T01:16:11.418Z,70.78
2018-09-30T01:19:15.876Z,72.07
2018-09-30T01:22:20.323Z,71.37
2018-09-30T01:25:24.818Z,71.47
2018-09-30T01:28:29.253Z,71.70
2018-09-30T01:31:33.710Z,71.44
2018-09-30T01:34:38.155Z,70.98
2018-09-30T01:37:42.578Z,71.27
2018-09-30T01:40:47.026Z,70.43
2018-09-30T01:43:51.449Z,71.43
2018-09-30T01:46:55.884Z,71.93
2018-09-30T01:50:00.362Z,71.99
2018-09-30T01:53:04.823Z,70.76
2018-09-30T01:56:09.250Z,71.46
2018-09-30T01:59:13.669Z,71.54
2018-09-30T02:02:18.114Z,71.88
2018-09-30T02:05:22.638Z,70.37
2018-09-30T02:08:27.055Z,71.63
2018-09-30T02:11:31.481Z,72.05
2018-09-30T02:14:35.894Z,71.23
2018-09-30T02:17:40.334Z,71.29
2018-09-30T02:20:44.762Z,71.01
2018-09-30T02:23:49.170Z,71.73
2018-09-30T02:26:53.590Z,71.94
2018-09-30T02:29:57.993Z,70.82
2018-09-30T02:33:02.474Z,69.77
2018-09-30T02:36:06.931Z,70.99
2018-09-30T02:39:11.354Z,71.96
2018-09-30T02:42:15.786Z,72.04
2018-09-30T02:45:20.210Z,70.44
2018-09-30T02:48:24.650Z,72.29
2018-09-30T02:51:29.103Z,71.64
2018-09-30T02:54:33.563Z,71.84
2018-09-30T02:57:37.982Z,71.78
2018-09-30T03:00:42.487Z,72.05
2018-09-30T03:03:46.902Z,72.99
2018-09-30T03:06:56.597Z,72.29
2018-09-30T03:10:01.126Z,72.09
2018-09-30T03:13:05.565Z,72.40
2018-09-30T03:16:09.993Z,72.92
2018-09-30T03:19:14.901Z,73.37
2018-09-30T03:22:19.329Z,74.38
2018-09-30T03:25:23.785Z,74.00
2018-09-30T03:28:28.206Z,73.82
2018-09-30T03:31:32.615Z,72.90
2018-09-30T03:34:37.050Z,73.21
2018-09-30T03:37:41.490Z,73.51
2018-09-30T03:40:45.935Z,72.78
2018-09-30T03:43:50.429Z,72.97
2018-09-30T03:46:54.842Z,72.73
2018-09-30T03:49:59.265Z,72.83
2018-09-30T03:53:03.706Z,72.53
2018-09-30T03:56:08.187Z,73.87
2018-09-30T03:59:12.642Z,73.95
2018-09-30T04:02:17.052Z,74.51
2018-09-30T04:05:21.481Z,74.18
2018-09-30T04:08:25.911Z,73.79
2018-09-30T04:11:30.309Z,72.56
2018-09-30T04:14:34.739Z,72.93
2018-09-30T04:17:39.150Z,73.39
2018-09-30T04:20:43.618Z,73.91
2018-09-30T04:23:48.054Z,73.59
2018-09-30T04:26:52.459Z,74.58
2018-09-30T04:29:56.882Z,73.97
2018-09-30T04:33:01.311Z,73.70
2018-09-30T04:36:05.748Z,73.84
2018-09-30T04:39:10.474Z,73.63
2018-09-30T04:42:14.874Z,73.23
2018-09-30T04:45:19.305Z,73.02
2018-09-30T04:48:23.738Z,73.08
2018-09-30T04:51:28.210Z,73.10
2018-09-30T04:54:32.847Z,73.38
2018-09-30T04:57:37.293Z,72.60
2018-09-30T05:00:41.726Z,73.34
2018-09-30T05:03:46.154Z,73.17
2018-09-30T05:06:50.605Z,72.77
2018-09-30T05:09:55.046Z,72.67
2018-09-30T05:12:59.521Z,72.31
2018-09-30T05:16:03.985Z,71.58
2018-09-30T05:19:08.466Z,72.85
2018-09-30T05:22:12.882Z,73.98
2018-09-30T05:25:17.362Z,73.23
2018-09-30T05:28:21.782Z,72.94
2018-09-30T05:31:26.290Z,74.09
2018-09-30T05:34:30.747Z,74.15
2018-09-30T05:37:35.161Z,74.47
2018-09-30T05:40:39.623Z,74.31
2018-09-30T05:43:44.037Z,74.86
2018-09-30T05:46:48.490Z,74.30
2018-09-30T05:49:52.923Z,74.53
2018-09-30T05:52:57.348Z,74.17
2018-09-30T05:56:01.794Z,74.29
2018-09-30T05:59:06.282Z,74.47
2018-09-30T06:02:10.707Z,74.14
2018-09-30T06:05:15.139Z,73.00
2018-09-30T06:08:19.546Z,72.69
2018-09-30T06:11:23.994Z,70.78
2018-09-30T06:14:28.407Z,66.62
2018-09-30T06:17:33.715Z,61.01
2018-09-30T06:20:38.259Z,56.82
2018-09-30T06:23:42.763Z,54.29
2018-09-30T06:26:47.256Z,51.56
2018-09-30T06:29:51.695Z,48.61
2018-09-30T06:32:56.130Z,46.95
2018-09-30T06:36:00.594Z,43.25
2018-09-30T06:39:07.999Z,43.15
2018-09-30T06:42:12.459Z,42.92
2018-09-30T06:45:17.004Z,42.22
2018-09-30T06:48:21.432Z,43.35
2018-09-30T06:51:25.883Z,44.21
2018-09-30T06:54:30.687Z,42.89
2018-09-30T06:57:35.130Z,44.08
2018-09-30T07:00:39.573Z,46.37
2018-09-30T07:03:44.059Z,50.04
2018-09-30T07:06:48.541Z,55.85
2018-09-30T07:09:59.652Z,57.33
2018-09-30T07:13:04.098Z,58.65
2018-09-30T07:16:08.524Z,59.38
2018-09-30T07:19:12.954Z,60.00
2018-09-30T07:22:17.443Z,60.24
2018-09-30T07:25:21.826Z,61.00
2018-09-30T07:28:26.291Z,62.66
2018-09-30T07:31:30.739Z,63.08
2018-09-30T07:34:35.271Z,62.21
2018-09-30T07:37:39.720Z,62.35
2018-09-30T07:40:44.170Z,62.90
2018-09-30T07:43:48.622Z,62.50
2018-09-30T07:46:53.167Z,61.87
2018-09-30T07:49:57.592Z,60.76
2018-09-30T07:53:02.130Z,60.39
2018-09-30T07:56:06.570Z,60.89
2018-09-30T07:59:11.004Z,60.83
2018-09-30T08:02:15.487Z,61.51
2018-09-30T08:05:19.909Z,60.44
2018-09-30T08:08:24.345Z,61.35
2018-09-30T08:11:28.775Z,60.91
2018-09-30T08:14:33.222Z,59.74
2018-09-30T08:17:37.670Z,59.76
2018-09-30T08:20:42.164Z,60.37
2018-09-30T08:23:46.626Z,59.26
2018-09-30T08:26:51.104Z,58.87
2018-09-30T08:29:55.651Z,58.20
2018-09-30T08:33:00.166Z,58.72
2018-09-30T08:36:08.535Z,58.05
2018-09-30T08:39:13.046Z,57.90
2018-09-30T08:42:17.491Z,57.88
2018-09-30T08:45:21.905Z,56.43
2018-09-30T08:48:26.589Z,56.32
2018-09-30T08:51:31.009Z,55.53
2018-09-30T08:54:35.435Z,55.47
2018-09-30T08:57:39.862Z,54.49
2018-09-30T09:00:44.377Z,54.02
2018-09-30T09:03:48.821Z,53.15
2018-09-30T09:06:53.238Z,51.11
2018-09-30T09:09:57.775Z,51.18
2018-09-30T09:13:02.175Z,50.28
2018-09-30T09:16:06.599Z,48.81
2018-09-30T09:19:11.026Z,48.80
2018-09-30T09:22:15.499Z,47.26
2018-09-30T09:25:19.958Z,46.04
2018-09-30T09:28:24.395Z,45.29
2018-09-30T09:31:28.869Z,44.75
2018-09-30T09:34:33.259Z,45.88
2018-09-30T09:37:38.335Z,45.89
2018-09-30T09:40:42.802Z,44.47
2018-09-30T09:43:47.326Z,43.78
2018-09-30T09:46:51.805Z,41.85
2018-09-30T09:49:56.298Z,41.61
2018-09-30T09:53:00.737Z,42.09
2018-09-30T09:56:05.163Z,41.58
2018-09-30T09:59:09.661Z,40.99
2018-09-30T10:02:14.182Z,39.69
2018-09-30T10:05:19.221Z,40.89
2018-09-30T10:08:23.691Z,40.04
2018-09-30T10:11:28.169Z,42.16
2018-09-30T10:14:32.606Z,40.74
2018-09-30T10:17:37.061Z,39.59
2018-09-30T10:20:41.483Z,39.73
2018-09-30T10:23:45.910Z,40.14
2018-09-30T10:26:50.331Z,39.81
2018-09-30T10:29:54.812Z,39.57
2018-09-30T10:32:59.338Z,37.36
2018-09-30T10:36:03.793Z,38.87
2018-09-30T10:39:10.328Z,37.92
2018-09-30T10:42:14.687Z,36.69
2018-09-30T10:45:19.157Z,38.17
2018-09-30T10:48:23.612Z,37.91
2018-09-30T10:51:28.024Z,39.13
2018-09-30T10:54:32.463Z,38.71
2018-09-30T10:57:36.878Z,37.99
2018-09-30T11:00:41.314Z,38.72
2018-09-30T11:03:45.827Z,39.45
2018-09-30T11:06:50.351Z,37.72
2018-09-30T11:09:54.849Z,38.63
2018-09-30T11:12:59.293Z,38.76
2018-09-30T11:16:03.859Z,39.32
2018-09-30T11:19:08.305Z,38.91
2018-09-30T11:22:12.776Z,37.50
2018-09-30T11:25:17.266Z,37.97
2018-09-30T11:28:21.725Z,38.99
2018-09-30T11:31:26.251Z,39.67
2018-09-30T11:34:30.692Z,38.07
2018-09-30T11:37:35.106Z,37.70
2018-09-30T11:40:39.623Z,38.73
2018-09-30T11:43:44.038Z,38.20
2018-09-30T11:46:48.480Z,37.43
2018-09-30T11:49:52.910Z,39.13
2018-09-30T11:52:57.327Z,37.97
2018-09-30T11:56:01.822Z,38.94
2018-09-30T11:59:06.331Z,38.84
2018-09-30T12:02:10.832Z,38.29
2018-09-30T12:05:15.320Z,37.40
2018-09-30T12:08:19.845Z,36.57
2018-09-30T12:11:24.341Z,38.28
2018-09-30T12:14:28.878Z,36.36
2018-09-30T12:17:33.407Z,37.15
2018-09-30T12:20:37.905Z,36.67
2018-09-30T12:23:42.346Z,37.23
2018-09-30T12:26:46.858Z,37.09
2018-09-30T12:29:51.320Z,36.26
2018-09-30T12:32:55.895Z,37.04
2018-09-30T12:36:00.609Z,37.61
2018-09-30T12:39:07.024Z,36.32
2018-09-30T12:42:11.442Z,36.95
2018-09-30T12:45:16.087Z,36.59
2018-09-30T12:48:20.885Z,37.06
2018-09-30T12:51:25.430Z,35.42
2018-09-30T12:54:29.943Z,35.86
2018-09-30T12:57:34.398Z,36.97
2018-09-30T13:00:38.831Z,35.43
2018-09-30T13:03:43.357Z,35.83
2018-09-30T13:06:47.884Z,36.57
2018-09-30T13:09:52.410Z,35.58
2018-09-30T13:12:59.053Z,35.28
2018-09-30T13:16:03.559Z,35.72
2018-09-30T13:19:08.019Z,35.61
2018-09-30T13:22:12.450Z,34.73
2018-09-30T13:25:16.909Z,35.87
2018-09-30T13:28:21.354Z,35.18
2018-09-30T13:31:25.813Z,33.60
2018-09-30T13:34:30.262Z,32.69
2018-09-30T13:37:34.702Z,30.54
2018-09-30T13:40:39.404Z,30.19
2018-09-30T13:43:43.803Z,30.30
2018-09-30T13:46:48.357Z,29.95
2018-09-30T13:49:52.956Z,29.53
2018-09-30T13:52:57.513Z,30.47
2018-09-30T13:56:01.978Z,30.92
2018-09-30T13:59:06.477Z,30.98
2018-09-30T14:02:10.947Z,31.40
2018-09-30T14:05:15.410Z,32.35
2018-09-30T14:08:19.937Z,32.68
2018-09-30T14:11:24.595Z,34.33
2018-09-30T14:14:29.030Z,32.85
2018-09-30T14:17:34.332Z,34.49
2018-09-30T14:20:38.784Z,35.35
2018-09-30T14:23:43.384Z,36.17
2018-09-30T14:26:47.848Z,35.84
2018-09-30T14:29:52.259Z,36.41
2018-09-30T14:32:56.697Z,37.71
2018-09-30T14:36:01.121Z,38.35
2018-09-30T14:39:09.807Z,38.62
2018-09-30T14:42:14.230Z,38.34
2018-09-30T14:45:18.666Z,38.17
2018-09-30T14:48:23.232Z,36.83
2018-09-30T14:51:27.526Z,37.83
2018-09-30T14:54:32.077Z,37.68
2018-09-30T14:57:36.454Z,37.28
2018-09-30T15:00:40.979Z,39.70
2018-09-30T15:03:45.975Z,39.48
2018-09-30T15:06:50.535Z,40.85
2018-09-30T15:09:55.046Z,40.50
2018-09-30T15:12:59.571Z,41.89
2018-09-30T15:16:05.075Z,41.82
2018-09-30T15:19:09.609Z,41.34
2018-09-30T15:22:14.030Z,41.28
2018-09-30T15:25:18.510Z,42.97
2018-09-30T15:28:23.036Z,43.14
2018-09-30T15:31:27.470Z,41.54
2018-09-30T15:34:31.911Z,42.48
2018-09-30T15:37:36.317Z,43.10
2018-09-30T15:40:40.858Z,43.44
2018-09-30T15:43:45.301Z,43.00
2018-09-30T15:46:49.764Z,43.10
2018-09-30T15:49:54.200Z,44.73
2018-09-30T15:52:58.614Z,45.26
2018-09-30T15:56:03.075Z,45.50
2018-09-30T15:59:07.570Z,46.38
2018-09-30T16:02:11.994Z,48.10
2018-09-30T16:05:16.468Z,47.73
2018-09-30T16:08:20.891Z,46.75
2018-09-30T16:11:25.385Z,48.60
2018-09-30T16:14:29.912Z,48.65
2018-09-30T16:17:34.895Z,49.97
2018-09-30T16:20:39.395Z,50.86
2018-09-30T16:23:43.818Z,51.75
2018-09-30T16:26:48.312Z,51.60
2018-09-30T16:29:52.761Z,50.77
2018-09-30T16:32:57.170Z,50.01
2018-09-30T16:36:01.646Z,51.87
2018-09-30T16:39:08.423Z,53.56
2018-09-30T16:42:12.922Z,54.10
2018-09-30T16:45:17.386Z,54.55
2018-09-30T16:48:21.902Z,55.29
2018-09-30T16:51:26.473Z,55.49
2018-09-30T16:54:30.991Z,55.95
2018-09-30T16:57:35.526Z,55.85
2018-09-30T17:00:39.984Z,56.58
2018-09-30T17:03:44.573Z,56.72
2018-09-30T17:06:49.091Z,56.66
2018-09-30T17:09:53.545Z,57.69
2018-09-30T17:12:58.006Z,58.15
2018-09-30T17:16:02.494Z,57.18
2018-09-30T17:19:06.962Z,57.36
2018-09-30T17:22:11.413Z,58.22
2018-09-30T17:25:15.998Z,58.36
2018-09-30T17:28:20.479Z,59.19
2018-09-30T17:31:24.923Z,58.82
2018-09-30T17:34:29.318Z,58.90
2018-09-30T17:37:33.783Z,59.28
2018-09-30T17:40:38.261Z,60.62
2018-09-30T17:43:42.687Z,59.60
2018-09-30T17:46:47.168Z,59.97
2018-09-30T17:49:51.743Z,60.41
2018-09-30T17:52:56.186Z,60.40
2018-09-30T17:56:00.642Z,61.53
2018-09-30T17:59:05.098Z,61.54
2018-09-30T18:02:09.550Z,61.96
2018-09-30T18:05:13.982Z,61.74
2018-09-30T18:08:18.433Z,62.06
2018-09-30T18:11:22.877Z,61.81
2018-09-30T18:14:27.591Z,61.76
2018-09-30T18:17:32.055Z,62.26
2018-09-30T18:20:36.482Z,62.22
2018-09-30T18:23:41.045Z,63.28
2018-09-30T18:26:45.507Z,63.46
2018-09-30T18:29:49.941Z,63.58
2018-09-30T18:32:54.929Z,63.52
2018-09-30T18:35:59.478Z,63.33
2018-09-30T18:39:04.859Z,64.00
2018-09-30T18:42:09.368Z,64.65
2018-09-30T18:45:13.804Z,64.15
2018-09-30T18:48:18.295Z,64.11
2018-09-30T18:51:22.803Z,64.29
2018-09-30T18:54:27.319Z,64.90
2018-09-30T18:57:32.133Z,65.25
2018-09-30T19:00:36.561Z,65.45
2018-09-30T19:03:41.263Z,65.40
2018-09-30T19:06:45.738Z,65.03
2018-09-30T19:09:50.452Z,65.94
2018-09-30T19:12:54.998Z,65.67
2018-09-30T19:15:59.924Z,65.57
2018-09-30T19:19:04.706Z,66.36
2018-09-30T19:22:09.426Z,65.85
2018-09-30T19:25:14.101Z,66.15
2018-09-30T19:28:18.607Z,66.37
2018-09-30T19:31:23.038Z,66.26
2018-09-30T19:34:27.482Z,67.13
2018-09-30T19:37:32.241Z,66.84
2018-09-30T19:40:37.576Z,66.20
2018-09-30T19:43:42.151Z,66.62
2018-09-30T19:46:46.606Z,66.63
2018-09-30T19:49:51.231Z,66.58
2018-09-30T19:52:55.706Z,67.43
2018-09-30T19:56:00.232Z,67.24
2018-09-30T19:59:05.107Z,67.21
2018-09-30T20:02:09.803Z,67.40
2018-09-30T20:05:14.270Z,67.80
2018-09-30T20:08:18.745Z,67.25
2018-09-30T20:11:23.389Z,68.19
2018-09-30T20:14:27.827Z,67.55
2018-09-30T20:17:32.727Z,67.54
2018-09-30T20:20:37.265Z,68.43
2018-09-30T20:23:41.730Z,68.84
2018-09-30T20:26:46.166Z,68.67
2018-09-30T20:29:50.783Z,68.73
2018-09-30T20:32:55.354Z,68.95
2018-09-30T20:35:59.834Z,68.71
2018-09-30T20:39:06.351Z,69.49
2018-09-30T20:42:10.831Z,69.00
2018-09-30T20:45:15.274Z,69.05
2018-09-30T20:48:19.746Z,69.94
2018-09-30T20:51:24.214Z,69.70
2018-09-30T20:54:28.690Z,69.93
2018-09-30T20:57:33.110Z,69.74
2018-09-30T21:00:37.670Z,69.91
2018-09-30T21:03:42.109Z,70.25
2018-09-30T21:06:46.772Z,70.99
2018-09-30T21:09:51.326Z,70.25
2018-09-30T21:12:55.820Z,70.40
2018-09-30T21:16:00.987Z,70.94
2018-09-30T21:19:05.562Z,71.28
2018-09-30T21:22:09.974Z,70.69
2018-09-30T21:25:14.419Z,71.48
2018-09-30T21:28:18.891Z,70.78
2018-09-30T21:31:23.338Z,71.72
2018-09-30T21:34:27.778Z,71.09
2018-09-30T21:37:32.258Z,70.86
2018-09-30T21:40:36.769Z,71.85
2018-09-30T21:43:41.194Z,70.89
2018-09-30T21:46:45.634Z,71.36
2018-09-30T21:49:50.095Z,71.40
2018-09-30T21:52:54.555Z,71.93
2018-09-30T21:55:59.030Z,71.87
2018-09-30T21:59:03.460Z,72.43
2018-09-30T22:02:07.917Z,72.35
2018-09-30T22:05:12.369Z,72.21
2018-09-30T22:08:16.814Z,71.76
2018-09-30T22:11:21.264Z,72.70
2018-09-30T22:14:25.688Z,72.95
2018-09-30T22:17:30.119Z,72.74
2018-09-30T22:20:34.561Z,72.71
2018-09-30T22:23:38.966Z,72.50
2018-09-30T22:26:43.426Z,72.61
2018-09-30T22:29:47.875Z,72.77
2018-09-30T22:32:52.338Z,72.74
2018-09-30T22:35:56.770Z,72.94
2018-09-30T22:39:01.216Z,72.14
2018-09-30T22:42:05.671Z,72.61
2018-09-30T22:45:10.179Z,72.90
2018-09-30T22:48:14.595Z,73.63
2018-09-30T22:51:19.027Z,72.71
2018-09-30T22:54:23.430Z,73.69
2018-09-30T22:57:27.915Z,72.89
2018-09-30T23:00:32.350Z,72.23
2018-09-30T23:03:36.775Z,72.72
2018-09-30T23:06:41.208Z,72.82
2018-09-30T23:09:45.671Z,73.08
2018-09-30T23:12:50.176Z,72.25
2018-09-30T23:15:54.618Z,73.63
2018-09-30T23:18:59.058Z,73.49
2018-09-30T23:22:03.534Z,73.11
2018-09-30T23:25:08.034Z,74.90
2018-09-30T23:28:12.499Z,74.55
2018-09-30T23:31:16.983Z,75.13
2018-09-30T23:34:21.665Z,73.76
2018-09-30T23:37:26.102Z,74.06
2018-09-30T23:40:30.534Z,74.46
2018-09-30T23:43:35.011Z,75.21
2018-09-30T23:46:39.508Z,75.06
2018-09-30T23:49:43.942Z,75.17
2018-09-30T23:52:48.388Z,75.69
2018-09-30T23:55:52.801Z,75.03
2018-09-30T23:58:57.298Z,74.64
